createdAt,value
2024-03-02T00:00:12.907Z,7.50
2024-03-02T00:02:45.349Z,7.87
2024-03-02T00:08:42.369Z,8.83
2024-03-02T00:11:16.945Z,8.50
2024-03-02T00:13:45.339Z,8.87
2024-03-02T00:19:14.603Z,9.47
2024-03-02T00:21:41.932Z,10.03
2024-03-02T00:24:33.066Z,8.40
2024-03-02T00:27:00.193Z,10.33
2024-03-02T00:29:29.238Z,9.40
2024-03-02T00:31:56.961Z,8.90
2024-03-02T00:34:25.845Z,9.50
2024-03-02T00:36:53.453Z,9.77
2024-03-02T00:44:38.181Z,9.50
2024-03-02T00:47:08.862Z,9.33
2024-03-02T00:49:37.767Z,10.80
2024-03-02T00:52:21.174Z,10.47
2024-03-02T00:54:54.404Z,10.30
2024-03-02T00:57:26.624Z,10.87
2024-03-02T01:00:12.662Z,9.43
2024-03-02T01:02:49.297Z,9.10
2024-03-02T01:05:19.653Z,11.23
2024-03-02T01:11:01.495Z,9.83
2024-03-02T01:13:32.190Z,10.13
2024-03-02T01:16:00.016Z,11.27
2024-03-02T01:18:50.870Z,11.70
2024-03-02T01:21:54.351Z,10.80
2024-03-02T01:24:21.563Z,11.63
2024-03-02T01:27:01.524Z,10.67
2024-03-02T01:29:39.009Z,12.43
2024-03-02T01:32:06.824Z,11.17
2024-03-02T01:34:34.236Z,11.90
2024-03-02T01:39:51.652Z,11.67
2024-03-02T01:42:45.846Z,10.23
2024-03-02T01:45:44.603Z,11.13
2024-03-02T01:48:12.139Z,12.20
2024-03-02T01:50:39.551Z,12.20
2024-03-02T01:53:10.200Z,12.03
2024-03-02T01:56:00.132Z,11.83
2024-03-02T01:58:27.749Z,12.13
2024-03-02T02:00:57.352Z,12.50
2024-03-02T02:03:25.171Z,11.77
2024-03-02T02:11:08.353Z,12.37
2024-03-02T02:13:36.060Z,11.13
2024-03-02T02:16:09.292Z,12.90
2024-03-02T02:18:37.909Z,13.00
2024-03-02T02:21:06.051Z,13.23
2024-03-02T02:23:34.529Z,13.20
2024-03-02T02:26:05.436Z,12.73
2024-03-02T02:31:52.912Z,13.20
2024-03-02T02:34:21.994Z,13.50
2024-03-02T02:36:50.354Z,13.73
2024-03-02T02:39:21.221Z,13.00
2024-03-02T02:41:56.890Z,14.30
2024-03-02T02:44:24.888Z,15.77
2024-03-02T02:46:53.270Z,13.90
2024-03-02T02:49:23.713Z,14.47
2024-03-02T02:57:09.023Z,15.67
2024-03-02T02:59:51.170Z,14.63
2024-03-02T03:02:29.189Z,16.47
2024-03-02T03:05:13.825Z,15.93
2024-03-02T03:07:50.664Z,14.30
2024-03-02T03:10:20.639Z,15.90
2024-03-02T03:12:56.771Z,15.70
2024-03-02T03:15:31.898Z,14.53
2024-03-02T03:24:34.969Z,14.73
2024-03-02T03:27:07.522Z,14.97
2024-03-02T03:29:35.390Z,14.77
2024-03-02T03:32:08.127Z,14.50
2024-03-02T03:34:35.716Z,14.37
2024-03-02T03:37:03.118Z,16.40
2024-03-02T03:39:36.396Z,14.40
2024-03-02T03:42:17.354Z,14.73
2024-03-02T03:59:45.205Z,14.67
2024-03-02T04:02:13.437Z,15.27
2024-03-02T04:04:58.350Z,15.27
2024-03-02T04:07:26.011Z,17.00
2024-03-02T04:09:53.558Z,16.63
2024-03-02T04:12:20.895Z,17.10
2024-03-02T04:17:33.389Z,18.10
2024-03-02T04:20:01.932Z,17.07
2024-03-02T04:37:58.265Z,17.30
2024-03-02T04:40:29.308Z,15.40
2024-03-02T04:42:58.272Z,19.10
2024-03-02T04:45:28.632Z,19.80
2024-03-02T04:47:57.136Z,18.43
2024-03-02T04:50:31.298Z,18.73
2024-03-02T04:52:59.525Z,18.57
2024-03-02T04:55:53.122Z,18.37
2024-03-02T04:58:20.457Z,18.30
2024-03-02T05:18:11.167Z,14.97
2024-03-02T05:20:38.825Z,13.77
2024-03-02T05:23:06.616Z,12.13
2024-03-02T05:25:38.234Z,13.00
2024-03-02T05:28:06.383Z,12.33
2024-03-02T05:30:38.307Z,13.80
2024-03-02T05:33:25.862Z,12.47
2024-03-02T05:35:54.068Z,13.57
2024-03-02T05:54:00.609Z,13.30
2024-03-02T05:56:31.171Z,12.13
2024-03-02T05:59:08.861Z,12.63
2024-03-02T06:01:36.420Z,11.57
2024-03-02T06:04:03.938Z,14.27
2024-03-02T06:06:37.207Z,14.10
2024-03-02T06:09:20.296Z,12.57
2024-03-02T06:14:45.724Z,13.20
2024-03-02T06:17:15.600Z,14.43
2024-03-02T06:19:42.752Z,14.63
2024-03-02T06:22:11.090Z,14.10
2024-03-02T06:24:42.502Z,12.00
2024-03-02T06:27:10.097Z,12.07
2024-03-02T06:29:45.636Z,14.03
2024-03-02T06:32:15.337Z,12.37
2024-03-02T06:40:00.184Z,12.87
2024-03-02T06:42:29.575Z,11.53
2024-03-02T06:44:57.345Z,11.53
2024-03-02T06:47:25.183Z,8.73
2024-03-02T06:49:54.090Z,9.77
2024-03-02T06:52:25.129Z,9.63
2024-03-02T06:54:52.880Z,8.80
2024-03-02T06:57:30.150Z,8.37
2024-03-02T07:00:00.584Z,9.33
2024-03-02T07:17:07.801Z,9.43
2024-03-02T07:19:36.105Z,7.23
2024-03-02T07:22:08.471Z,7.70
2024-03-02T07:24:44.377Z,7.80
2024-03-02T07:27:28.984Z,8.63
2024-03-02T07:30:10.638Z,7.13
2024-03-02T07:32:48.793Z,7.80
2024-03-02T07:35:19.456Z,9.43
2024-03-02T07:42:01.471Z,7.90
2024-03-02T07:44:29.074Z,9.03
2024-03-02T07:46:56.289Z,9.43
2024-03-02T07:49:23.727Z,10.77
2024-03-02T07:51:51.354Z,9.07
2024-03-02T07:54:18.578Z,9.83
2024-03-02T07:56:47.633Z,9.63
2024-03-02T07:59:16.549Z,10.83
2024-03-02T08:06:13.970Z,9.90
2024-03-02T08:08:47.045Z,10.30
2024-03-02T08:11:15.500Z,9.73
2024-03-02T08:13:42.989Z,9.40
2024-03-02T08:16:11.359Z,9.43
2024-03-02T08:18:38.667Z,9.20
2024-03-02T08:23:55.208Z,8.70
2024-03-02T08:41:59.369Z,7.77
2024-03-02T08:44:26.610Z,8.73
2024-03-02T08:46:53.898Z,8.47
2024-03-02T08:49:23.691Z,8.07
2024-03-02T08:51:55.419Z,8.13
2024-03-02T08:54:22.867Z,8.43
2024-03-02T08:56:50.809Z,8.20
2024-03-02T08:59:22.738Z,8.83
2024-03-02T09:18:58.865Z,5.60
2024-03-02T09:22:04.012Z,6.90
2024-03-02T09:24:32.522Z,5.70
2024-03-02T09:27:05.794Z,6.30
2024-03-02T09:29:37.878Z,5.33
2024-03-02T09:32:19.372Z,5.23
2024-03-02T09:34:50.097Z,6.07
2024-03-02T09:40:43.552Z,5.93
2024-03-02T09:43:20.911Z,4.80
2024-03-02T09:45:49.806Z,5.47
2024-03-02T09:48:19.197Z,4.63
2024-03-02T09:51:05.194Z,5.00
2024-03-02T09:53:34.130Z,4.40
2024-03-02T09:56:08.427Z,5.10
2024-03-02T10:02:25.836Z,4.73
2024-03-02T10:21:04.900Z,3.47
2024-03-02T10:23:39.308Z,3.53
2024-03-02T10:26:24.650Z,3.63
2024-03-02T10:29:10.565Z,3.93
2024-03-02T10:31:40.698Z,3.70
2024-03-02T10:34:08.598Z,3.43
2024-03-02T10:36:37.616Z,4.40
2024-03-02T10:39:22.607Z,3.87
2024-03-02T10:47:34.885Z,3.43
2024-03-02T10:50:09.716Z,3.70
2024-03-02T10:52:50.263Z,2.93
2024-03-02T10:55:38.726Z,2.80
2024-03-02T11:01:23.156Z,2.80
2024-03-02T11:04:00.451Z,2.30
2024-03-02T11:07:00.230Z,2.50
2024-03-02T11:17:32.205Z,2.60
2024-03-02T11:23:06.760Z,1.97
2024-03-02T11:25:36.516Z,2.80
2024-03-02T11:28:06.375Z,2.07
2024-03-02T11:30:57.766Z,1.70
2024-03-02T11:33:30.012Z,2.23
2024-03-02T11:36:02.822Z,1.73
2024-03-02T11:46:31.668Z,2.10
2024-03-02T11:52:40.545Z,2.63
2024-03-02T11:55:24.936Z,1.63
2024-03-02T11:58:08.316Z,1.60
2024-03-02T12:00:35.830Z,1.20
2024-03-02T12:03:07.379Z,1.60
2024-03-02T12:05:38.975Z,1.60
2024-03-02T12:13:02.741Z,1.50
2024-03-02T12:15:33.092Z,1.60
2024-03-02T12:18:02.576Z,2.80
2024-03-02T12:20:38.872Z,3.07
2024-03-02T12:23:06.651Z,2.57
2024-03-02T12:25:34.071Z,2.30
2024-03-02T12:28:05.250Z,2.20
2024-03-02T12:37:59.081Z,2.17
2024-03-02T12:40:26.400Z,3.17
2024-03-02T12:42:58.260Z,3.63
2024-03-02T12:45:33.068Z,3.00
2024-03-02T12:48:02.601Z,2.50
2024-03-02T12:50:45.276Z,3.63
2024-03-02T12:56:14.370Z,3.13
2024-03-02T12:58:42.700Z,3.70
2024-03-02T13:01:13.078Z,2.90
2024-03-02T13:03:41.748Z,3.50
2024-03-02T13:06:15.413Z,3.30
2024-03-02T13:08:45.982Z,2.93
2024-03-02T13:11:17.651Z,4.20
2024-03-02T13:26:58.522Z,2.50
2024-03-02T13:29:27.137Z,3.90
2024-03-02T13:31:56.898Z,3.37
2024-03-02T13:34:25.929Z,1.90
2024-03-02T13:37:10.641Z,1.40
2024-03-02T13:39:44.606Z,1.17
2024-03-02T13:42:15.884Z,1.33
2024-03-02T13:52:22.350Z,1.80
2024-03-02T13:54:49.798Z,1.70
2024-03-02T13:57:26.354Z,1.60
2024-03-02T13:59:58.673Z,2.17
2024-03-02T14:02:35.321Z,2.27
2024-03-02T14:05:07.010Z,2.97
2024-03-02T14:07:50.189Z,2.97
2024-03-02T14:10:27.523Z,2.87
2024-03-02T14:17:35.013Z,3.67
2024-03-02T14:20:29.465Z,3.87
2024-03-02T14:25:51.840Z,4.17
2024-03-02T14:28:49.392Z,3.10
2024-03-02T14:31:39.372Z,3.23
2024-03-02T14:34:25.199Z,2.70
2024-03-02T14:36:58.516Z,2.73
2024-03-02T14:45:24.086Z,2.30
2024-03-02T14:47:56.811Z,2.13
2024-03-02T14:50:27.119Z,2.53
2024-03-02T14:53:27.998Z,2.47
2024-03-02T14:56:02.751Z,2.30
2024-03-02T14:58:34.254Z,2.50
2024-03-02T15:01:02.230Z,2.57
2024-03-02T15:03:29.844Z,3.17
2024-03-02T15:06:15.908Z,2.87
2024-03-02T15:11:44.101Z,2.80
2024-03-02T15:14:11.411Z,2.30
2024-03-02T15:16:38.604Z,2.37
2024-03-02T15:19:08.213Z,2.80
2024-03-02T15:21:38.962Z,2.40
2024-03-02T15:24:11.938Z,2.63
2024-03-02T15:26:47.064Z,2.80
2024-03-02T15:29:14.621Z,2.20
2024-03-02T15:36:58.676Z,2.10
2024-03-02T15:39:25.991Z,2.17
2024-03-02T15:41:59.320Z,2.50
2024-03-02T15:44:28.636Z,2.07
2024-03-02T15:46:56.068Z,1.70
2024-03-02T15:49:28.779Z,1.97
2024-03-02T15:51:56.135Z,1.70
2024-03-02T15:59:46.907Z,1.63
2024-03-02T16:02:14.997Z,1.83
2024-03-02T16:04:43.289Z,2.20
2024-03-02T16:07:11.314Z,2.20
2024-03-02T16:09:41.789Z,1.77
2024-03-02T16:12:16.036Z,1.77
2024-03-02T16:14:45.690Z,1.93
2024-03-02T16:17:15.083Z,2.63
2024-03-02T16:22:33.180Z,2.43
2024-03-02T16:25:00.698Z,2.00
2024-03-02T16:27:29.124Z,2.20
2024-03-02T16:29:58.560Z,2.40
2024-03-02T16:32:26.425Z,1.80
2024-03-02T16:34:53.668Z,2.27
2024-03-02T16:37:36.743Z,2.67
2024-03-02T16:45:18.677Z,2.57
2024-03-02T16:47:46.458Z,2.30
2024-03-02T16:50:20.497Z,2.80
2024-03-02T16:53:08.799Z,2.50
2024-03-02T16:55:45.074Z,2.57
2024-03-02T17:01:08.622Z,2.50
2024-03-02T17:03:37.297Z,2.73
2024-03-02T17:11:17.924Z,2.83
2024-03-02T17:13:46.347Z,2.30
2024-03-02T17:16:14.941Z,2.73
2024-03-02T17:18:43.034Z,2.50
2024-03-02T17:21:10.582Z,2.80
2024-03-02T17:23:47.653Z,2.67
2024-03-02T17:26:17.914Z,2.77
2024-03-02T17:31:39.158Z,3.10
2024-03-02T17:34:11.553Z,3.07
2024-03-02T17:36:40.494Z,2.70
2024-03-02T17:39:23.787Z,2.97
2024-03-02T17:41:56.640Z,2.90
2024-03-02T17:44:24.210Z,3.00
2024-03-02T17:46:58.058Z,2.73
2024-03-02T17:54:01.266Z,3.23
2024-03-02T17:56:33.936Z,3.50
2024-03-02T17:59:00.900Z,3.37
2024-03-02T18:01:34.323Z,3.43
2024-03-02T18:04:14.022Z,3.50
2024-03-02T18:06:43.911Z,3.67
2024-03-02T18:09:12.325Z,4.07
2024-03-02T18:14:28.136Z,3.60
2024-03-02T18:16:55.172Z,4.07
2024-03-02T18:19:22.377Z,4.40
2024-03-02T18:21:50.376Z,4.37
2024-03-02T18:24:18.129Z,3.60
2024-03-02T18:26:45.321Z,4.07
2024-03-02T18:29:14.454Z,4.17
2024-03-02T18:31:44.989Z,3.67
2024-03-02T18:38:27.402Z,3.90
2024-03-02T18:40:55.281Z,3.30
2024-03-02T18:43:25.121Z,11.13
2024-03-02T18:45:53.598Z,7.30
2024-03-02T18:48:23.868Z,10.57
2024-03-02T18:50:51.176Z,7.67
2024-03-02T18:53:18.159Z,7.90
2024-03-02T18:58:33.023Z,4.60
2024-03-02T19:01:00.614Z,4.17
2024-03-02T19:03:29.728Z,3.27
2024-03-02T19:05:56.708Z,4.13
2024-03-02T19:08:25.439Z,4.33
2024-03-02T19:10:55.181Z,3.83
2024-03-02T19:13:24.597Z,3.70
2024-03-02T19:20:44.930Z,4.30
2024-03-02T19:23:18.483Z,4.87
2024-03-02T19:25:48.694Z,3.63
2024-03-02T19:28:15.967Z,4.13
2024-03-02T19:30:45.979Z,4.37
2024-03-02T19:33:15.018Z,4.13
2024-03-02T19:35:42.268Z,4.10
2024-03-02T19:42:43.689Z,4.07
2024-03-02T19:45:11.110Z,3.97
2024-03-02T19:47:38.249Z,3.77
2024-03-02T19:50:06.343Z,4.47
2024-03-02T19:52:34.126Z,4.17
2024-03-02T19:55:03.137Z,4.23
2024-03-02T19:57:30.279Z,4.33
2024-03-02T20:04:58.018Z,3.97
2024-03-02T20:07:25.259Z,4.90
2024-03-02T20:09:53.742Z,5.43
2024-03-02T20:12:21.064Z,4.10
2024-03-02T20:14:49.491Z,3.87
2024-03-02T20:17:16.555Z,4.47
2024-03-02T20:19:43.698Z,5.17
2024-03-02T20:27:16.726Z,5.03
2024-03-02T20:29:43.923Z,5.60
2024-03-02T20:32:11.000Z,5.37
2024-03-02T20:34:38.235Z,5.00
2024-03-02T20:37:06.276Z,4.13
2024-03-02T20:39:34.135Z,5.73
2024-03-02T20:42:01.255Z,5.23
2024-03-02T20:47:09.619Z,5.53
2024-03-02T20:49:37.739Z,5.97
2024-03-02T20:52:05.867Z,5.97
2024-03-02T20:54:33.236Z,5.03
2024-03-02T20:57:00.475Z,5.80
2024-03-02T20:59:28.312Z,5.47
2024-03-02T21:01:56.303Z,6.27
2024-03-02T21:09:14.564Z,5.27
2024-03-02T21:11:44.725Z,6.50
2024-03-02T21:14:12.128Z,6.30
2024-03-02T21:16:40.742Z,5.30
2024-03-02T21:19:09.060Z,6.03
2024-03-02T21:21:38.866Z,6.70
2024-03-02T21:24:08.191Z,6.63
2024-03-02T21:31:37.865Z,6.17
2024-03-02T21:34:05.089Z,6.83
2024-03-02T21:36:32.810Z,7.13
2024-03-02T21:39:02.749Z,7.07
2024-03-02T21:41:31.476Z,6.70
2024-03-02T21:43:58.634Z,5.93
2024-03-02T21:46:25.982Z,6.77
2024-03-02T21:54:09.143Z,6.17
2024-03-02T21:56:37.174Z,6.57
2024-03-02T21:59:04.429Z,6.33
2024-03-02T22:01:31.867Z,6.20
2024-03-02T22:03:59.142Z,6.70
2024-03-02T22:06:27.200Z,6.93
2024-03-02T22:08:55.304Z,7.23
2024-03-02T22:16:27.440Z,7.17
2024-03-02T22:18:57.073Z,7.17
2024-03-02T22:21:24.137Z,7.90
2024-03-02T22:23:51.307Z,7.03
2024-03-02T22:26:19.549Z,6.67
2024-03-02T22:28:46.553Z,5.93
2024-03-02T22:31:15.222Z,7.27
2024-03-02T22:38:28.443Z,6.43
2024-03-02T22:40:56.102Z,7.43
2024-03-02T22:43:23.167Z,7.00
2024-03-02T22:45:51.547Z,7.20
2024-03-02T22:48:19.953Z,6.63
2024-03-02T22:50:47.419Z,6.83
2024-03-02T22:53:14.641Z,6.90
2024-03-02T23:00:50.050Z,8.13
2024-03-02T23:03:18.849Z,7.80
2024-03-02T23:05:49.278Z,8.10
2024-03-02T23:08:20.644Z,8.13
2024-03-02T23:10:47.563Z,7.20
2024-03-02T23:13:14.675Z,8.30
2024-03-02T23:15:41.715Z,7.87
2024-03-02T23:21:34.954Z,6.97
2024-03-02T23:24:02.201Z,7.97
2024-03-02T23:26:29.100Z,7.80
2024-03-02T23:28:55.979Z,7.93
2024-03-02T23:31:23.371Z,8.10
2024-03-02T23:33:50.977Z,7.20
2024-03-02T23:36:18.027Z,7.67
2024-03-02T23:44:08.336Z,10.13
2024-03-02T23:46:35.622Z,8.93
2024-03-02T23:49:03.263Z,8.87
2024-03-02T23:51:30.495Z,8.90
2024-03-02T23:53:58.092Z,8.93
2024-03-02T23:56:25.111Z,8.43
2024-03-02T23:58:52.412Z,9.07
